sensor_id;sensor_type;location;lat;lon;timestamp;P1;durP1;ratioP1;P2;durP2;ratioP2
38843;SDS011;24596;48.080;8.362;2023-06-26T00:02:20;11.32;;;7.43;;
38843;SDS011;24596;48.080;8.362;2023-06-26T00:04:45;10.88;;;7.35;;
38843;SDS011;24596;48.080;8.362;2023-06-26T00:07:10;10.75;;;7.30;;
38843;SDS011;24596;48.080;8.362;2023-06-26T00:09:36;11.43;;;8.07;;
38843;SDS011;24596;48.080;8.362;2023-06-26T00:12:01;10.75;;;7.30;;
38843;SDS011;24596;48.080;8.362;2023-06-26T00:14:26;12.77;;;7.85;;
38843;SDS011;24596;48.080;8.362;2023-06-26T00:16:52;9.95;;;7.32;;
38843;SDS011;24596;48.080;8.362;2023-06-26T00:19:17;10.05;;;7.22;;
38843;SDS011;24596;48.080;8.362;2023-06-26T00:21:43;13.18;;;7.50;;
38843;SDS011;24596;48.080;8.362;2023-06-26T00:24:11;10.48;;;6.68;;
38843;SDS011;24596;48.080;8.362;2023-06-26T00:26:36;11.00;;;7.40;;
38843;SDS011;24596;48.080;8.362;2023-06-26T00:29:02;10.63;;;7.47;;
38843;SDS011;24596;48.080;8.362;2023-06-26T00:31:27;11.60;;;7.40;;
38843;SDS011;24596;48.080;8.362;2023-06-26T00:33:52;11.52;;;7.30;;
38843;SDS011;24596;48.080;8.362;2023-06-26T00:36:17;11.02;;;7.70;;
38843;SDS011;24596;48.080;8.362;2023-06-26T00:38:42;10.73;;;6.50;;
38843;SDS011;24596;48.080;8.362;2023-06-26T00:41:08;11.40;;;6.90;;
38843;SDS011;24596;48.080;8.362;2023-06-26T00:43:37;9.68;;;6.57;;
38843;SDS011;24596;48.080;8.362;2023-06-26T00:46:02;10.55;;;7.30;;
38843;SDS011;24596;48.080;8.362;2023-06-26T00:48:27;10.63;;;7.60;;
38843;SDS011;24596;48.080;8.362;2023-06-26T00:50:52;11.10;;;6.30;;
38843;SDS011;24596;48.080;8.362;2023-06-26T00:53:18;11.02;;;7.38;;
38843;SDS011;24596;48.080;8.362;2023-06-26T00:55:43;13.07;;;7.68;;
38843;SDS011;24596;48.080;8.362;2023-06-26T00:58:09;10.75;;;7.28;;
38843;SDS011;24596;48.080;8.362;2023-06-26T01:00:34;10.85;;;8.00;;
38843;SDS011;24596;48.080;8.362;2023-06-26T01:02:59;9.38;;;6.20;;
38843;SDS011;24596;48.080;8.362;2023-06-26T01:05:25;10.77;;;6.75;;
38843;SDS011;24596;48.080;8.362;2023-06-26T01:07:51;11.75;;;7.63;;
38843;SDS011;24596;48.080;8.362;2023-06-26T01:10:20;10.20;;;6.80;;
38843;SDS011;24596;48.080;8.362;2023-06-26T01:12:45;11.48;;;7.50;;
38843;SDS011;24596;48.080;8.362;2023-06-26T01:15:10;11.95;;;6.72;;
38843;SDS011;24596;48.080;8.362;2023-06-26T01:17:36;11.23;;;7.43;;
38843;SDS011;24596;48.080;8.362;2023-06-26T01:20:03;11.02;;;6.97;;
38843;SDS011;24596;48.080;8.362;2023-06-26T01:22:34;11.38;;;7.55;;
38843;SDS011;24596;48.080;8.362;2023-06-26T01:27:48;10.75;;;7.10;;
38843;SDS011;24596;48.080;8.362;2023-06-26T01:30:15;10.18;;;6.78;;
38843;SDS011;24596;48.080;8.362;2023-06-26T01:32:40;12.38;;;7.20;;
38843;SDS011;24596;48.080;8.362;2023-06-26T01:35:06;14.05;;;7.72;;
38843;SDS011;24596;48.080;8.362;2023-06-26T01:37:32;10.30;;;7.18;;
38843;SDS011;24596;48.080;8.362;2023-06-26T01:39:57;13.18;;;7.82;;
38843;SDS011;24596;48.080;8.362;2023-06-26T01:42:23;9.97;;;6.87;;
38843;SDS011;24596;48.080;8.362;2023-06-26T01:44:48;10.47;;;7.03;;
38843;SDS011;24596;48.080;8.362;2023-06-26T01:47:14;11.90;;;7.68;;
38843;SDS011;24596;48.080;8.362;2023-06-26T01:53:02;11.45;;;7.75;;
38843;SDS011;24596;48.080;8.362;2023-06-26T01:57:27;12.37;;;7.23;;
38843;SDS011;24596;48.080;8.362;2023-06-26T01:59:53;10.20;;;6.32;;
38843;SDS011;24596;48.080;8.362;2023-06-26T02:02:19;11.38;;;6.53;;
38843;SDS011;24596;48.080;8.362;2023-06-26T02:04:44;9.75;;;6.10;;
38843;SDS011;24596;48.080;8.362;2023-06-26T02:07:13;10.57;;;7.18;;
38843;SDS011;24596;48.080;8.362;2023-06-26T02:09:38;10.15;;;6.65;;
38843;SDS011;24596;48.080;8.362;2023-06-26T02:12:03;10.18;;;6.50;;
38843;SDS011;24596;48.080;8.362;2023-06-26T02:14:29;10.07;;;6.40;;
38843;SDS011;24596;48.080;8.362;2023-06-26T02:16:54;10.17;;;6.73;;
38843;SDS011;24596;48.080;8.362;2023-06-26T02:19:19;11.07;;;7.43;;
38843;SDS011;24596;48.080;8.362;2023-06-26T02:21:47;11.65;;;6.43;;
38843;SDS011;24596;48.080;8.362;2023-06-26T02:24:12;10.68;;;7.18;;
38843;SDS011;24596;48.080;8.362;2023-06-26T02:26:37;10.57;;;6.85;;
38843;SDS011;24596;48.080;8.362;2023-06-26T02:29:02;11.23;;;7.30;;
38843;SDS011;24596;48.080;8.362;2023-06-26T02:31:28;12.23;;;7.30;;
38843;SDS011;24596;48.080;8.362;2023-06-26T02:33:53;10.93;;;7.43;;
38843;SDS011;24596;48.080;8.362;2023-06-26T02:36:18;9.97;;;6.33;;
38843;SDS011;24596;48.080;8.362;2023-06-26T02:38:43;11.43;;;7.50;;
38843;SDS011;24596;48.080;8.362;2023-06-26T02:41:08;12.68;;;7.50;;
38843;SDS011;24596;48.080;8.362;2023-06-26T02:43:34;11.88;;;7.57;;
38843;SDS011;24596;48.080;8.362;2023-06-26T02:45:59;10.52;;;7.30;;
38843;SDS011;24596;48.080;8.362;2023-06-26T02:48:24;12.83;;;7.53;;
38843;SDS011;24596;48.080;8.362;2023-06-26T02:50:49;10.90;;;7.53;;
38843;SDS011;24596;48.080;8.362;2023-06-26T02:53:14;11.10;;;7.10;;
38843;SDS011;24596;48.080;8.362;2023-06-26T02:55:41;9.80;;;6.88;;
38843;SDS011;24596;48.080;8.362;2023-06-26T02:58:06;11.17;;;7.23;;
38843;SDS011;24596;48.080;8.362;2023-06-26T03:00:31;19.13;;;7.82;;
38843;SDS011;24596;48.080;8.362;2023-06-26T03:02:56;12.47;;;7.97;;
38843;SDS011;24596;48.080;8.362;2023-06-26T03:05:22;10.70;;;7.78;;
38843;SDS011;24596;48.080;8.362;2023-06-26T03:07:48;11.52;;;7.20;;
38843;SDS011;24596;48.080;8.362;2023-06-26T03:10:14;11.47;;;6.90;;
38843;SDS011;24596;48.080;8.362;2023-06-26T03:12:39;11.03;;;6.77;;
38843;SDS011;24596;48.080;8.362;2023-06-26T03:15:04;11.75;;;7.22;;
38843;SDS011;24596;48.080;8.362;2023-06-26T03:17:29;13.68;;;7.13;;
38843;SDS011;24596;48.080;8.362;2023-06-26T03:19:55;10.98;;;7.30;;
38843;SDS011;24596;48.080;8.362;2023-06-26T03:22:20;12.23;;;7.63;;
38843;SDS011;24596;48.080;8.362;2023-06-26T03:24:45;9.75;;;6.72;;
38843;SDS011;24596;48.080;8.362;2023-06-26T03:27:10;11.52;;;7.50;;
38843;SDS011;24596;48.080;8.362;2023-06-26T03:29:36;11.27;;;6.72;;
38843;SDS011;24596;48.080;8.362;2023-06-26T03:32:02;12.70;;;7.87;;
38843;SDS011;24596;48.080;8.362;2023-06-26T03:34:27;12.77;;;8.20;;
38843;SDS011;24596;48.080;8.362;2023-06-26T03:36:52;14.20;;;8.48;;
38843;SDS011;24596;48.080;8.362;2023-06-26T03:39:17;10.48;;;6.78;;
38843;SDS011;24596;48.080;8.362;2023-06-26T03:41:42;11.13;;;7.47;;
38843;SDS011;24596;48.080;8.362;2023-06-26T03:44:08;11.23;;;7.73;;
38843;SDS011;24596;48.080;8.362;2023-06-26T03:46:33;10.98;;;7.35;;
38843;SDS011;24596;48.080;8.362;2023-06-26T03:48:58;11.63;;;7.27;;
38843;SDS011;24596;48.080;8.362;2023-06-26T03:51:23;11.25;;;7.43;;
38843;SDS011;24596;48.080;8.362;2023-06-26T03:53:49;10.80;;;7.35;;
38843;SDS011;24596;48.080;8.362;2023-06-26T03:56:14;11.95;;;7.78;;
38843;SDS011;24596;48.080;8.362;2023-06-26T03:58:39;11.25;;;7.20;;
38843;SDS011;24596;48.080;8.362;2023-06-26T04:01:07;11.20;;;7.35;;
38843;SDS011;24596;48.080;8.362;2023-06-26T04:03:32;10.63;;;7.47;;
38843;SDS011;24596;48.080;8.362;2023-06-26T04:05:57;9.38;;;6.25;;
38843;SDS011;24596;48.080;8.362;2023-06-26T04:08:23;11.35;;;7.93;;
38843;SDS011;24596;48.080;8.362;2023-06-26T04:10:50;10.05;;;7.30;;
38843;SDS011;24596;48.080;8.362;2023-06-26T04:13:17;12.82;;;7.65;;
38843;SDS011;24596;48.080;8.362;2023-06-26T04:15:42;11.55;;;7.93;;
38843;SDS011;24596;48.080;8.362;2023-06-26T04:18:07;11.98;;;7.97;;
38843;SDS011;24596;48.080;8.362;2023-06-26T04:20:36;11.70;;;7.00;;
38843;SDS011;24596;48.080;8.362;2023-06-26T04:23:03;10.80;;;7.05;;
38843;SDS011;24596;48.080;8.362;2023-06-26T04:25:28;10.63;;;7.15;;
38843;SDS011;24596;48.080;8.362;2023-06-26T04:27:54;10.05;;;6.65;;
38843;SDS011;24596;48.080;8.362;2023-06-26T04:30:19;11.68;;;7.28;;
38843;SDS011;24596;48.080;8.362;2023-06-26T04:32:44;13.77;;;6.67;;
38843;SDS011;24596;48.080;8.362;2023-06-26T04:35:09;12.27;;;7.60;;
38843;SDS011;24596;48.080;8.362;2023-06-26T04:37:35;11.05;;;7.60;;
38843;SDS011;24596;48.080;8.362;2023-06-26T04:40:01;12.93;;;7.88;;
38843;SDS011;24596;48.080;8.362;2023-06-26T04:42:28;11.23;;;7.60;;
38843;SDS011;24596;48.080;8.362;2023-06-26T04:44:53;10.87;;;7.27;;
38843;SDS011;24596;48.080;8.362;2023-06-26T04:47:19;13.73;;;7.40;;
38843;SDS011;24596;48.080;8.362;2023-06-26T04:49:44;11.60;;;8.02;;
38843;SDS011;24596;48.080;8.362;2023-06-26T04:52:10;11.98;;;7.82;;
38843;SDS011;24596;48.080;8.362;2023-06-26T04:54:38;12.18;;;7.65;;
38843;SDS011;24596;48.080;8.362;2023-06-26T04:57:03;10.40;;;7.53;;
38843;SDS011;24596;48.080;8.362;2023-06-26T04:59:28;11.73;;;7.15;;
38843;SDS011;24596;48.080;8.362;2023-06-26T05:01:54;10.97;;;7.13;;
38843;SDS011;24596;48.080;8.362;2023-06-26T05:04:19;11.15;;;6.88;;
38843;SDS011;24596;48.080;8.362;2023-06-26T05:06:44;10.02;;;6.43;;
38843;SDS011;24596;48.080;8.362;2023-06-26T05:09:09;9.45;;;5.97;;
38843;SDS011;24596;48.080;8.362;2023-06-26T05:11:36;12.15;;;7.43;;
38843;SDS011;24596;48.080;8.362;2023-06-26T05:14:01;13.00;;;7.47;;
38843;SDS011;24596;48.080;8.362;2023-06-26T05:16:26;10.43;;;6.90;;
38843;SDS011;24596;48.080;8.362;2023-06-26T05:18:52;10.20;;;6.97;;
38843;SDS011;24596;48.080;8.362;2023-06-26T05:21:17;11.73;;;7.20;;
38843;SDS011;24596;48.080;8.362;2023-06-26T05:23:42;10.32;;;6.53;;
38843;SDS011;24596;48.080;8.362;2023-06-26T05:26:09;11.45;;;6.50;;
38843;SDS011;24596;48.080;8.362;2023-06-26T05:28:35;9.85;;;6.22;;
38843;SDS011;24596;48.080;8.362;2023-06-26T05:31:01;8.73;;;5.75;;
38843;SDS011;24596;48.080;8.362;2023-06-26T05:33:26;9.15;;;5.88;;
38843;SDS011;24596;48.080;8.362;2023-06-26T05:35:52;9.77;;;5.80;;
38843;SDS011;24596;48.080;8.362;2023-06-26T05:38:18;10.27;;;6.45;;
38843;SDS011;24596;48.080;8.362;2023-06-26T05:40:43;9.95;;;6.28;;
38843;SDS011;24596;48.080;8.362;2023-06-26T05:43:08;9.50;;;5.82;;
38843;SDS011;24596;48.080;8.362;2023-06-26T05:45:34;11.80;;;6.50;;
38843;SDS011;24596;48.080;8.362;2023-06-26T05:47:59;10.10;;;6.40;;
38843;SDS011;24596;48.080;8.362;2023-06-26T05:50:25;10.13;;;6.65;;
38843;SDS011;24596;48.080;8.362;2023-06-26T05:52:50;9.18;;;5.68;;
38843;SDS011;24596;48.080;8.362;2023-06-26T05:55:15;11.60;;;6.55;;
38843;SDS011;24596;48.080;8.362;2023-06-26T05:57:41;11.82;;;6.40;;
38843;SDS011;24596;48.080;8.362;2023-06-26T06:00:06;8.85;;;6.35;;
38843;SDS011;24596;48.080;8.362;2023-06-26T06:02:35;10.13;;;5.97;;
38843;SDS011;24596;48.080;8.362;2023-06-26T06:05:01;8.68;;;6.25;;
38843;SDS011;24596;48.080;8.362;2023-06-26T06:07:26;8.40;;;5.80;;
38843;SDS011;24596;48.080;8.362;2023-06-26T06:09:51;9.77;;;6.30;;
38843;SDS011;24596;48.080;8.362;2023-06-26T06:12:16;8.90;;;6.37;;
38843;SDS011;24596;48.080;8.362;2023-06-26T06:14:42;10.90;;;5.88;;
38843;SDS011;24596;48.080;8.362;2023-06-26T06:17:07;10.63;;;6.47;;
38843;SDS011;24596;48.080;8.362;2023-06-26T06:19:32;11.63;;;6.80;;
38843;SDS011;24596;48.080;8.362;2023-06-26T06:21:57;12.57;;;7.17;;
38843;SDS011;24596;48.080;8.362;2023-06-26T06:24:22;8.07;;;5.60;;
38843;SDS011;24596;48.080;8.362;2023-06-26T06:26:48;10.50;;;6.57;;
38843;SDS011;24596;48.080;8.362;2023-06-26T06:29:13;8.10;;;5.53;;
38843;SDS011;24596;48.080;8.362;2023-06-26T06:31:38;11.83;;;6.50;;
38843;SDS011;24596;48.080;8.362;2023-06-26T06:34:03;9.70;;;6.07;;
38843;SDS011;24596;48.080;8.362;2023-06-26T06:36:28;9.80;;;6.37;;
38843;SDS011;24596;48.080;8.362;2023-06-26T06:38:54;9.23;;;5.83;;
38843;SDS011;24596;48.080;8.362;2023-06-26T06:41:19;9.38;;;5.70;;
38843;SDS011;24596;48.080;8.362;2023-06-26T06:43:45;10.35;;;6.63;;
38843;SDS011;24596;48.080;8.362;2023-06-26T06:46:11;11.10;;;6.07;;
38843;SDS011;24596;48.080;8.362;2023-06-26T06:48:36;8.77;;;5.70;;
38843;SDS011;24596;48.080;8.362;2023-06-26T06:51:01;9.90;;;5.03;;
38843;SDS011;24596;48.080;8.362;2023-06-26T06:53:27;8.98;;;6.20;;
38843;SDS011;24596;48.080;8.362;2023-06-26T06:55:52;12.75;;;5.72;;
38843;SDS011;24596;48.080;8.362;2023-06-26T06:58:17;8.70;;;5.60;;
38843;SDS011;24596;48.080;8.362;2023-06-26T07:00:44;10.80;;;6.88;;
38843;SDS011;24596;48.080;8.362;2023-06-26T07:03:09;8.88;;;6.00;;
38843;SDS011;24596;48.080;8.362;2023-06-26T07:05:35;8.65;;;5.80;;
38843;SDS011;24596;48.080;8.362;2023-06-26T07:08:00;7.97;;;5.35;;
38843;SDS011;24596;48.080;8.362;2023-06-26T07:10:25;7.77;;;5.03;;
38843;SDS011;24596;48.080;8.362;2023-06-26T07:12:51;9.32;;;5.35;;
38843;SDS011;24596;48.080;8.362;2023-06-26T07:15:16;7.97;;;5.10;;
38843;SDS011;24596;48.080;8.362;2023-06-26T07:17:41;8.50;;;5.45;;
38843;SDS011;24596;48.080;8.362;2023-06-26T07:20:07;8.95;;;5.43;;
38843;SDS011;24596;48.080;8.362;2023-06-26T07:22:33;9.23;;;5.22;;
38843;SDS011;24596;48.080;8.362;2023-06-26T07:24:58;9.55;;;5.75;;
38843;SDS011;24596;48.080;8.362;2023-06-26T07:27:24;7.43;;;4.77;;
38843;SDS011;24596;48.080;8.362;2023-06-26T07:29:49;9.70;;;5.70;;
38843;SDS011;24596;48.080;8.362;2023-06-26T07:32:14;13.55;;;8.23;;
38843;SDS011;24596;48.080;8.362;2023-06-26T07:34:39;10.95;;;5.13;;
38843;SDS011;24596;48.080;8.362;2023-06-26T07:37:05;8.57;;;5.50;;
38843;SDS011;24596;48.080;8.362;2023-06-26T07:39:30;8.13;;;5.47;;
38843;SDS011;24596;48.080;8.362;2023-06-26T07:41:55;9.27;;;5.43;;
38843;SDS011;24596;48.080;8.362;2023-06-26T07:44:21;8.45;;;5.57;;
38843;SDS011;24596;48.080;8.362;2023-06-26T07:46:47;8.73;;;5.50;;
38843;SDS011;24596;48.080;8.362;2023-06-26T07:49:12;7.85;;;5.28;;
38843;SDS011;24596;48.080;8.362;2023-06-26T07:51:37;10.20;;;5.70;;
38843;SDS011;24596;48.080;8.362;2023-06-26T07:54:02;8.73;;;5.43;;
38843;SDS011;24596;48.080;8.362;2023-06-26T07:56:28;7.88;;;5.15;;
38843;SDS011;24596;48.080;8.362;2023-06-26T07:58:53;8.95;;;4.82;;
38843;SDS011;24596;48.080;8.362;2023-06-26T08:01:18;8.30;;;5.30;;
38843;SDS011;24596;48.080;8.362;2023-06-26T08:03:43;9.40;;;5.30;;
38843;SDS011;24596;48.080;8.362;2023-06-26T08:06:09;8.00;;;4.32;;
38843;SDS011;24596;48.080;8.362;2023-06-26T08:08:34;7.97;;;5.00;;
38843;SDS011;24596;48.080;8.362;2023-06-26T08:10:59;9.73;;;5.57;;
38843;SDS011;24596;48.080;8.362;2023-06-26T08:13:24;8.33;;;5.10;;
38843;SDS011;24596;48.080;8.362;2023-06-26T08:15:50;7.45;;;4.97;;
38843;SDS011;24596;48.080;8.362;2023-06-26T08:18:15;9.53;;;5.63;;
38843;SDS011;24596;48.080;8.362;2023-06-26T08:20:40;9.17;;;5.53;;
38843;SDS011;24596;48.080;8.362;2023-06-26T08:23:05;9.67;;;5.63;;
38843;SDS011;24596;48.080;8.362;2023-06-26T08:25:31;8.00;;;5.10;;
38843;SDS011;24596;48.080;8.362;2023-06-26T08:27:56;10.60;;;5.60;;
38843;SDS011;24596;48.080;8.362;2023-06-26T08:30:21;8.40;;;5.00;;
38843;SDS011;24596;48.080;8.362;2023-06-26T08:32:46;8.20;;;5.38;;
38843;SDS011;24596;48.080;8.362;2023-06-26T08:35:12;8.82;;;5.25;;
38843;SDS011;24596;48.080;8.362;2023-06-26T08:37:37;7.80;;;5.50;;
38843;SDS011;24596;48.080;8.362;2023-06-26T08:40:02;8.23;;;5.45;;
38843;SDS011;24596;48.080;8.362;2023-06-26T08:42:29;9.10;;;5.00;;
38843;SDS011;24596;48.080;8.362;2023-06-26T08:44:54;8.00;;;5.35;;
38843;SDS011;24596;48.080;8.362;2023-06-26T08:47:19;11.35;;;5.22;;
38843;SDS011;24596;48.080;8.362;2023-06-26T08:54:43;9.20;;;5.47;;
38843;SDS011;24596;48.080;8.362;2023-06-26T08:57:10;8.10;;;5.20;;
38843;SDS011;24596;48.080;8.362;2023-06-26T08:59:35;11.52;;;6.07;;
38843;SDS011;24596;48.080;8.362;2023-06-26T09:02:02;8.63;;;5.30;;
38843;SDS011;24596;48.080;8.362;2023-06-26T09:04:27;9.13;;;5.88;;
38843;SDS011;24596;48.080;8.362;2023-06-26T09:06:53;7.80;;;5.40;;
38843;SDS011;24596;48.080;8.362;2023-06-26T09:09:19;9.43;;;5.63;;
38843;SDS011;24596;48.080;8.362;2023-06-26T09:11:45;10.52;;;5.78;;
38843;SDS011;24596;48.080;8.362;2023-06-26T09:14:10;9.53;;;6.10;;
38843;SDS011;24596;48.080;8.362;2023-06-26T09:16:39;8.15;;;5.68;;
38843;SDS011;24596;48.080;8.362;2023-06-26T09:19:06;8.07;;;5.72;;
38843;SDS011;24596;48.080;8.362;2023-06-26T09:21:33;8.43;;;5.70;;
38843;SDS011;24596;48.080;8.362;2023-06-26T09:23:58;8.85;;;5.93;;
38843;SDS011;24596;48.080;8.362;2023-06-26T09:26:23;9.32;;;6.07;;
38843;SDS011;24596;48.080;8.362;2023-06-26T09:28:49;9.10;;;6.60;;
38843;SDS011;24596;48.080;8.362;2023-06-26T09:31:16;7.95;;;5.65;;
38843;SDS011;24596;48.080;8.362;2023-06-26T09:33:41;8.63;;;5.88;;
38843;SDS011;24596;48.080;8.362;2023-06-26T09:36:08;8.63;;;5.60;;
38843;SDS011;24596;48.080;8.362;2023-06-26T09:38:35;10.57;;;6.22;;
38843;SDS011;24596;48.080;8.362;2023-06-26T09:41:00;9.23;;;6.10;;
38843;SDS011;24596;48.080;8.362;2023-06-26T09:43:26;7.75;;;5.80;;
38843;SDS011;24596;48.080;8.362;2023-06-26T09:45:52;11.38;;;5.90;;
38843;SDS011;24596;48.080;8.362;2023-06-26T09:48:19;8.05;;;5.75;;
38843;SDS011;24596;48.080;8.362;2023-06-26T09:50:44;11.30;;;6.17;;
38843;SDS011;24596;48.080;8.362;2023-06-26T09:53:09;11.43;;;6.50;;
38843;SDS011;24596;48.080;8.362;2023-06-26T09:55:35;8.52;;;6.28;;
38843;SDS011;24596;48.080;8.362;2023-06-26T09:58:02;9.23;;;6.10;;
38843;SDS011;24596;48.080;8.362;2023-06-26T10:00:27;9.63;;;6.05;;
38843;SDS011;24596;48.080;8.362;2023-06-26T10:02:53;9.77;;;6.00;;
38843;SDS011;24596;48.080;8.362;2023-06-26T10:05:18;9.23;;;5.80;;
38843;SDS011;24596;48.080;8.362;2023-06-26T10:07:44;9.90;;;5.50;;
38843;SDS011;24596;48.080;8.362;2023-06-26T10:10:10;8.15;;;5.68;;
38843;SDS011;24596;48.080;8.362;2023-06-26T10:12:35;9.70;;;5.90;;
38843;SDS011;24596;48.080;8.362;2023-06-26T10:15:00;8.53;;;6.30;;
38843;SDS011;24596;48.080;8.362;2023-06-26T10:17:29;10.00;;;6.43;;
38843;SDS011;24596;48.080;8.362;2023-06-26T10:19:55;9.52;;;6.80;;
38843;SDS011;24596;48.080;8.362;2023-06-26T10:22:24;10.43;;;6.93;;
38843;SDS011;24596;48.080;8.362;2023-06-26T10:24:50;8.18;;;6.38;;
38843;SDS011;24596;48.080;8.362;2023-06-26T10:27:16;9.60;;;6.00;;
38843;SDS011;24596;48.080;8.362;2023-06-26T10:29:43;10.00;;;6.75;;
38843;SDS011;24596;48.080;8.362;2023-06-26T10:32:10;11.65;;;6.22;;
38843;SDS011;24596;48.080;8.362;2023-06-26T10:34:36;11.35;;;6.20;;
38843;SDS011;24596;48.080;8.362;2023-06-26T10:37:02;11.45;;;7.18;;
38843;SDS011;24596;48.080;8.362;2023-06-26T10:39:45;13.35;;;6.80;;
38843;SDS011;24596;48.080;8.362;2023-06-26T10:42:10;11.82;;;6.70;;
38843;SDS011;24596;48.080;8.362;2023-06-26T10:44:46;10.80;;;6.45;;
38843;SDS011;24596;48.080;8.362;2023-06-26T10:47:12;11.18;;;6.82;;
38843;SDS011;24596;48.080;8.362;2023-06-26T10:49:37;12.10;;;7.13;;
38843;SDS011;24596;48.080;8.362;2023-06-26T10:52:07;10.05;;;6.85;;
38843;SDS011;24596;48.080;8.362;2023-06-26T10:54:32;11.38;;;6.25;;
38843;SDS011;24596;48.080;8.362;2023-06-26T10:56:58;8.70;;;6.55;;
38843;SDS011;24596;48.080;8.362;2023-06-26T10:59:25;10.35;;;6.30;;
38843;SDS011;24596;48.080;8.362;2023-06-26T11:01:54;9.82;;;6.45;;
38843;SDS011;24596;48.080;8.362;2023-06-26T11:04:21;10.27;;;7.05;;
38843;SDS011;24596;48.080;8.362;2023-06-26T11:07:14;10.20;;;7.00;;
38843;SDS011;24596;48.080;8.362;2023-06-26T11:09:52;11.73;;;7.03;;
38843;SDS011;24596;48.080;8.362;2023-06-26T11:12:33;12.13;;;7.60;;
38843;SDS011;24596;48.080;8.362;2023-06-26T11:14:58;10.25;;;6.50;;
38843;SDS011;24596;48.080;8.362;2023-06-26T11:17:24;10.13;;;6.93;;
38843;SDS011;24596;48.080;8.362;2023-06-26T11:19:49;13.88;;;8.07;;
38843;SDS011;24596;48.080;8.362;2023-06-26T11:22:15;10.63;;;7.30;;
38843;SDS011;24596;48.080;8.362;2023-06-26T11:24:40;10.02;;;7.63;;
38843;SDS011;24596;48.080;8.362;2023-06-26T11:27:06;10.68;;;7.55;;
38843;SDS011;24596;48.080;8.362;2023-06-26T11:29:31;10.00;;;8.00;;
38843;SDS011;24596;48.080;8.362;2023-06-26T11:32:00;10.57;;;7.68;;
38843;SDS011;24596;48.080;8.362;2023-06-26T11:37:29;13.45;;;8.75;;
38843;SDS011;24596;48.080;8.362;2023-06-26T11:39:54;10.88;;;7.85;;
38843;SDS011;24596;48.080;8.362;2023-06-26T11:42:20;10.70;;;7.27;;
38843;SDS011;24596;48.080;8.362;2023-06-26T11:44:45;11.85;;;8.35;;
38843;SDS011;24596;48.080;8.362;2023-06-26T11:47:14;13.07;;;8.65;;
38843;SDS011;24596;48.080;8.362;2023-06-26T11:49:41;11.00;;;8.50;;
38843;SDS011;24596;48.080;8.362;2023-06-26T11:52:07;9.73;;;7.32;;
38843;SDS011;24596;48.080;8.362;2023-06-26T11:54:32;11.17;;;7.70;;
38843;SDS011;24596;48.080;8.362;2023-06-26T11:56:58;11.18;;;8.20;;
38843;SDS011;24596;48.080;8.362;2023-06-26T11:59:24;11.15;;;7.60;;
38843;SDS011;24596;48.080;8.362;2023-06-26T12:01:50;11.02;;;7.40;;
38843;SDS011;24596;48.080;8.362;2023-06-26T12:04:17;11.55;;;7.93;;
38843;SDS011;24596;48.080;8.362;2023-06-26T12:06:43;11.70;;;7.43;;
38843;SDS011;24596;48.080;8.362;2023-06-26T12:09:10;10.73;;;7.28;;
38843;SDS011;24596;48.080;8.362;2023-06-26T12:11:40;9.65;;;6.80;;
38843;SDS011;24596;48.080;8.362;2023-06-26T12:14:06;12.82;;;7.38;;
38843;SDS011;24596;48.080;8.362;2023-06-26T12:16:31;9.73;;;6.78;;
38843;SDS011;24596;48.080;8.362;2023-06-26T12:19:01;12.30;;;7.47;;
38843;SDS011;24596;48.080;8.362;2023-06-26T12:24:08;11.35;;;6.93;;
38843;SDS011;24596;48.080;8.362;2023-06-26T12:26:33;12.80;;;7.70;;
38843;SDS011;24596;48.080;8.362;2023-06-26T12:29:17;10.80;;;6.78;;
38843;SDS011;24596;48.080;8.362;2023-06-26T12:31:48;11.13;;;7.75;;
38843;SDS011;24596;48.080;8.362;2023-06-26T12:34:14;10.50;;;7.53;;
38843;SDS011;24596;48.080;8.362;2023-06-26T12:36:43;11.02;;;7.18;;
38843;SDS011;24596;48.080;8.362;2023-06-26T12:39:12;11.05;;;7.63;;
38843;SDS011;24596;48.080;8.362;2023-06-26T12:41:44;11.80;;;7.82;;
38843;SDS011;24596;48.080;8.362;2023-06-26T12:44:16;10.80;;;7.70;;
38843;SDS011;24596;48.080;8.362;2023-06-26T12:46:41;10.20;;;7.85;;
38843;SDS011;24596;48.080;8.362;2023-06-26T12:49:06;9.55;;;7.32;;
38843;SDS011;24596;48.080;8.362;2023-06-26T12:51:32;10.77;;;7.40;;
38843;SDS011;24596;48.080;8.362;2023-06-26T12:53:57;10.87;;;7.30;;
38843;SDS011;24596;48.080;8.362;2023-06-26T12:56:22;11.73;;;7.40;;
38843;SDS011;24596;48.080;8.362;2023-06-26T12:58:47;12.17;;;7.27;;
38843;SDS011;24596;48.080;8.362;2023-06-26T13:01:12;10.47;;;7.97;;
38843;SDS011;24596;48.080;8.362;2023-06-26T13:03:42;12.02;;;7.50;;
38843;SDS011;24596;48.080;8.362;2023-06-26T13:06:07;14.57;;;8.70;;
38843;SDS011;24596;48.080;8.362;2023-06-26T13:08:33;11.93;;;7.87;;
38843;SDS011;24596;48.080;8.362;2023-06-26T13:10:58;13.52;;;7.65;;
38843;SDS011;24596;48.080;8.362;2023-06-26T13:13:23;11.60;;;8.33;;
38843;SDS011;24596;48.080;8.362;2023-06-26T13:15:48;11.13;;;8.17;;
38843;SDS011;24596;48.080;8.362;2023-06-26T13:18:14;12.47;;;8.73;;
38843;SDS011;24596;48.080;8.362;2023-06-26T13:20:39;11.20;;;8.10;;
38843;SDS011;24596;48.080;8.362;2023-06-26T13:23:04;10.17;;;7.47;;
38843;SDS011;24596;48.080;8.362;2023-06-26T13:25:29;10.40;;;7.20;;
38843;SDS011;24596;48.080;8.362;2023-06-26T13:27:54;13.17;;;8.73;;
38843;SDS011;24596;48.080;8.362;2023-06-26T13:30:21;14.73;;;8.50;;
38843;SDS011;24596;48.080;8.362;2023-06-26T13:32:46;12.52;;;7.70;;
38843;SDS011;24596;48.080;8.362;2023-06-26T13:35:11;13.43;;;8.00;;
38843;SDS011;24596;48.080;8.362;2023-06-26T13:37:36;15.07;;;8.77;;
38843;SDS011;24596;48.080;8.362;2023-06-26T13:40:02;11.10;;;7.78;;
38843;SDS011;24596;48.080;8.362;2023-06-26T13:42:27;11.48;;;8.13;;
38843;SDS011;24596;48.080;8.362;2023-06-26T13:44:53;11.82;;;7.88;;
38843;SDS011;24596;48.080;8.362;2023-06-26T13:47:18;10.63;;;7.87;;
38843;SDS011;24596;48.080;8.362;2023-06-26T13:49:43;11.68;;;7.47;;
38843;SDS011;24596;48.080;8.362;2023-06-26T13:52:08;11.77;;;7.50;;
38843;SDS011;24596;48.080;8.362;2023-06-26T13:54:34;12.33;;;8.00;;
38843;SDS011;24596;48.080;8.362;2023-06-26T13:57:00;10.85;;;7.88;;
38843;SDS011;24596;48.080;8.362;2023-06-26T13:59:27;10.70;;;7.68;;
38843;SDS011;24596;48.080;8.362;2023-06-26T14:01:52;12.43;;;7.97;;
38843;SDS011;24596;48.080;8.362;2023-06-26T14:04:17;12.97;;;7.57;;
38843;SDS011;24596;48.080;8.362;2023-06-26T14:06:42;13.27;;;7.40;;
38843;SDS011;24596;48.080;8.362;2023-06-26T14:09:08;15.93;;;7.90;;
38843;SDS011;24596;48.080;8.362;2023-06-26T14:11:33;9.60;;;7.70;;
38843;SDS011;24596;48.080;8.362;2023-06-26T14:13:58;13.73;;;7.20;;
38843;SDS011;24596;48.080;8.362;2023-06-26T14:16:24;11.18;;;7.00;;
38843;SDS011;24596;48.080;8.362;2023-06-26T14:18:50;11.43;;;6.63;;
38843;SDS011;24596;48.080;8.362;2023-06-26T14:21:15;11.87;;;7.07;;
38843;SDS011;24596;48.080;8.362;2023-06-26T14:23:41;11.75;;;6.70;;
38843;SDS011;24596;48.080;8.362;2023-06-26T14:26:06;10.90;;;7.30;;
38843;SDS011;24596;48.080;8.362;2023-06-26T14:28:31;23.10;;;6.93;;
38843;SDS011;24596;48.080;8.362;2023-06-26T14:30:56;11.80;;;6.22;;
38843;SDS011;24596;48.080;8.362;2023-06-26T14:33:21;9.27;;;6.27;;
38843;SDS011;24596;48.080;8.362;2023-06-26T14:35:47;11.33;;;6.93;;
38843;SDS011;24596;48.080;8.362;2023-06-26T14:38:12;10.43;;;6.17;;
38843;SDS011;24596;48.080;8.362;2023-06-26T14:40:37;10.37;;;6.20;;
38843;SDS011;24596;48.080;8.362;2023-06-26T14:43:02;9.77;;;6.73;;
38843;SDS011;24596;48.080;8.362;2023-06-26T14:45:27;11.47;;;6.53;;
38843;SDS011;24596;48.080;8.362;2023-06-26T14:47:53;11.32;;;6.72;;
38843;SDS011;24596;48.080;8.362;2023-06-26T14:50:18;8.37;;;5.50;;